Time;durP1;ratioP1;P1;durP2;ratioP2;P2;SDS_P1;SDS_P2;PMS_P1;PMS_P2;Temp;Humidity;BMP_temperature;BMP_pressure;BME280_temperature;BME280_humidity;BME280_pressure;Samples;Min_cycle;Max_cycle;Signal;HPM_P1;HPM_P2
2021/11/11 00:00:25;;;;;;;26.52;15.70;;;;;;;1.68;100.00;99091.50;10433367;28;20049;-60
2021/11/11 00:05:32;;;;;;;28.42;16.48;;;;;;;1.65;100.00;99096.97;10422636;28;20053;-56
2021/11/11 00:10:36;;;;;;;24.88;15.10;;;;;;;1.62;100.00;99089.19;10438011;28;20487;-55
2021/11/11 00:15:39;;;;;;;24.23;15.30;;;;;;;1.53;100.00;99091.44;10422672;28;20084;-57
2021/11/11 00:20:44;;;;;;;22.90;15.50;;;;;;;1.52;100.00;99092.38;10435627;28;20532;-56
2021/11/11 00:25:47;;;;;;;22.52;14.30;;;;;;;1.49;100.00;99079.25;10434516;28;20124;-56
2021/11/11 00:30:50;;;;;;;21.23;14.32;;;;;;;1.41;100.00;99072.69;10433047;28;20112;-59
2021/11/11 00:35:55;;;;;;;20.70;13.90;;;;;;;1.37;100.00;99064.91;10441980;28;20469;-59
2021/11/11 00:40:58;;;;;;;22.88;14.13;;;;;;;1.33;100.00;99073.97;10420233;28;20740;-58
2021/11/11 00:46:01;;;;;;;24.95;16.17;;;;;;;1.32;100.00;99071.41;10441244;28;20080;-59
2021/11/11 00:51:06;;;;;;;24.67;15.80;;;;;;;1.30;100.00;99067.97;10422929;28;20049;-54
2021/11/11 00:56:09;;;;;;;27.73;16.77;;;;;;;1.30;100.00;99057.38;10442677;28;20099;-57
2021/11/11 01:01:16;;;;;;;28.48;16.15;;;;;;;1.28;100.00;99059.25;10426367;28;20342;-56
2021/11/11 01:06:20;;;;;;;26.00;15.45;;;;;;;1.27;100.00;99062.84;10441665;28;20048;-60
2021/11/11 01:11:25;;;;;;;23.92;15.45;;;;;;;1.25;100.00;99054.09;10424953;28;20135;-61
2021/11/11 01:16:48;;;;;;;28.77;16.02;;;;;;;1.21;100.00;99048.97;10435379;28;20068;-59
2021/11/11 01:21:53;;;;;;;106.30;18.77;;;;;;;1.19;100.00;99056.19;10438249;28;20045;-59
2021/11/11 01:26:57;;;;;;;240.50;20.50;;;;;;;1.15;100.00;99057.28;10419738;28;20060;-58
2021/11/11 01:32:00;;;;;;;65.68;17.23;;;;;;;1.14;100.00;99052.91;10420861;28;20475;-59
2021/11/11 01:37:05;;;;;;;295.35;17.83;;;;;;;1.09;100.00;99041.72;10425078;28;20566;-59
2021/11/11 01:42:13;;;;;;;163.13;15.25;;;;;;;1.05;100.00;99035.72;10418318;28;20051;-60
2021/11/11 01:47:17;;;;;;;368.77;16.17;;;;;;;0.99;100.00;99036.06;10420945;28;20508;-60
2021/11/11 01:52:22;;;;;;;380.80;15.75;;;;;;;0.92;100.00;99032.03;10428700;28;20481;-60
2021/11/11 01:57:29;;;;;;;17.98;12.85;;;;;;;0.86;100.00;99027.06;10425740;28;20570;-57
2021/11/11 02:02:38;;;;;;;432.70;19.98;;;;;;;0.82;100.00;99021.06;10424310;28;20041;-58
2021/11/11 02:07:43;;;;;;;40.78;16.50;;;;;;;0.79;100.00;99015.09;10426032;28;20072;-57
2021/11/11 02:12:48;;;;;;;26.63;18.20;;;;;;;0.77;100.00;99004.53;10423803;28;20505;-59
2021/11/11 02:17:52;;;;;;;38.38;21.77;;;;;;;0.75;100.00;99014.41;10448520;28;20048;-58
2021/11/11 02:22:59;;;;;;;45.88;26.70;;;;;;;0.65;100.00;99018.50;10427692;28;20040;-58
2021/11/11 02:28:23;;;;;;;63.67;33.92;;;;;;;0.71;100.00;99018.16;10443587;28;20505;-59
2021/11/11 02:33:28;;;;;;;45.33;26.20;;;;;;;0.68;100.00;99035.09;10422265;28;20049;-59
2021/11/11 02:38:33;;;;;;;429.02;26.73;;;;;;;0.58;100.00;99045.34;10426800;28;20420;-59
2021/11/11 02:43:37;;;;;;;55.65;16.42;;;;;;;0.46;100.00;99051.28;10424352;28;20048;-60
2021/11/11 02:48:47;;;;;;;48.27;14.33;;;;;;;0.44;100.00;99045.22;10433087;28;20045;-59
2021/11/11 02:53:53;;;;;;;28.90;14.07;;;;;;;0.44;100.00;99047.88;10423749;28;20056;-60
2021/11/11 02:58:57;;;;;;;43.42;13.00;;;;;;;0.38;100.00;99034.94;10420400;28;20041;-58
2021/11/11 03:04:00;;;;;;;245.68;15.23;;;;;;;0.26;100.00;99039.97;10441714;28;20068;-58
2021/11/11 03:09:05;;;;;;;642.33;19.45;;;;;;;0.25;100.00;99040.91;10428764;28;20080;-58
2021/11/11 03:14:10;;;;;;;1598.13;34.25;;;;;;;0.16;100.00;99049.34;10422493;28;20467;-59
2021/11/11 03:19:13;;;;;;;374.40;16.98;;;;;;;0.16;100.00;99041.38;10418588;28;20369;-57
2021/11/11 03:24:18;;;;;;;395.40;18.35;;;;;;;0.16;100.00;99044.03;10419131;28;20412;-57
2021/11/11 03:29:21;;;;;;;366.85;17.48;;;;;;;0.12;100.00;99045.97;10421560;28;20064;-58
2021/11/11 03:34:26;;;;;;;338.30;18.50;;;;;;;0.11;100.00;99035.47;10440512;28;20114;-56
2021/11/11 03:39:33;;;;;;;438.75;22.25;;;;;;;0.10;100.00;99039.03;10421507;28;20049;-59
2021/11/11 03:44:39;;;;;;;448.55;22.00;;;;;;;0.12;100.00;99037.19;10423718;28;20053;-58
2021/11/11 03:49:43;;;;;;;232.48;21.30;;;;;;;0.15;100.00;99037.03;10419696;28;20408;-57
2021/11/11 03:54:48;;;;;;;226.63;22.52;;;;;;;0.20;100.00;99028.84;10424595;28;20044;-56
2021/11/11 03:59:57;;;;;;;157.63;22.75;;;;;;;0.21;100.00;99030.53;10420431;28;20045;-57
2021/11/11 04:05:01;;;;;;;406.60;24.98;;;;;;;0.21;100.00;99036.69;10444175;28;20509;-58
2021/11/11 04:10:09;;;;;;;142.07;23.15;;;;;;;0.26;100.00;99034.66;10417241;28;20584;-58
2021/11/11 04:15:40;;;;;;;140.60;22.40;;;;;;;0.28;100.00;99035.44;10422642;28;20497;-59
2021/11/11 04:20:44;;;;;;;93.85;22.92;;;;;;;0.29;100.00;99034.47;10410944;28;20052;-58
2021/11/11 04:25:55;;;;;;;65.72;21.17;;;;;;;0.32;100.00;99035.25;10428232;28;20593;-59
2021/11/11 04:31:02;;;;;;;;;;;;;;;0.28;100.00;99035.44;10421857;28;20037;-59
2021/11/11 04:36:19;;;;;;;99.53;24.17;;;;;;;0.26;100.00;99029.38;10424378;28;19928;-56
2021/11/11 04:41:42;;;;;;;107.18;24.92;;;;;;;0.25;100.00;99042.69;10407316;28;20139;-58
2021/11/11 04:47:03;;;;;;;45.10;24.10;;;;;;;0.26;100.00;99047.91;10421708;28;20048;-57
2021/11/11 04:52:26;;;;;;;85.17;23.30;;;;;;;0.24;100.00;99033.00;10430593;28;20079;-57
2021/11/11 05:03:06;;;;;;;393.58;27.38;;;;;;;0.21;100.00;99018.13;10428751;28;20620;-57
2021/11/11 05:08:11;;;;;;;436.55;25.38;;;;;;;0.20;100.00;99012.94;10411616;28;20144;-59
2021/11/11 05:13:16;;;;;;;464.02;24.20;;;;;;;0.13;100.00;99007.94;10425618;28;20040;-60
2021/11/11 05:18:20;;;;;;;790.90;26.60;;;;;;;0.10;100.00;99013.44;10423536;28;20059;-59
2021/11/11 05:23:24;;;;;;;561.20;23.35;;;;;;;0.04;100.00;98997.00;10425582;28;20037;-59
2021/11/11 05:28:29;;;;;;;650.78;24.73;;;;;;;-0.01;100.00;99007.81;10430039;28;20056;-60
2021/11/11 05:33:37;;;;;;;1420.85;34.38;;;;;;;-0.07;100.00;99018.72;10427937;28;20045;-59
2021/11/11 05:38:40;;;;;;;774.97;29.60;;;;;;;-0.39;100.00;99010.66;10423428;23;20089;-58
2021/11/11 05:43:45;;;;;;;132.15;30.25;;;;;;;-0.57;100.00;99010.63;10275182;28;20510;-57
2021/11/11 05:48:49;;;;;;;75.85;34.15;;;;;;;-0.49;100.00;99026.13;10280084;28;20439;-55
2021/11/11 05:53:52;;;;;;;81.45;34.72;;;;;;;-0.52;100.00;99028.91;10261671;28;20047;-55
2021/11/11 05:59:00;;;;;;;61.78;27.23;;;;;;;-0.57;100.00;99020.38;10260618;28;20415;-57
2021/11/11 06:04:03;;;;;;;156.45;23.77;;;;;;;-0.54;100.00;99028.16;10264384;28;20142;-57
2021/11/11 06:09:12;;;;;;;125.50;20.60;;;;;;;-0.59;100.00;99024.88;10262752;28;20047;-54
2021/11/11 06:14:18;;;;;;;78.57;20.08;;;;;;;-0.62;100.00;99026.72;10260551;28;20074;-53
2021/11/11 06:19:21;;;;;;;131.35;16.40;;;;;;;-0.63;100.00;99025.00;10260647;28;20046;-56
2021/11/11 06:24:24;;;;;;;357.48;20.65;;;;;;;-0.72;100.00;99027.28;10258756;28;20553;-56
2021/11/11 06:29:29;;;;;;;225.95;20.85;;;;;;;-0.74;100.00;99043.19;10254181;28;20346;-53
2021/11/11 06:34:32;;;;;;;165.35;19.48;;;;;;;-0.75;100.00;99049.44;10260656;28;20126;-54
2021/11/11 06:39:37;;;;;;;326.02;24.17;;;;;;;-0.75;100.00;99060.00;10295032;28;20086;-55
2021/11/11 06:44:46;;;;;;;1441.75;36.20;;;;;;;-0.95;100.00;99061.00;10317135;28;20049;-54
2021/11/11 06:49:49;;;;;;;256.25;21.70;;;;;;;-0.99;100.00;99060.25;10316581;28;20483;-54
2021/11/11 06:54:52;;;;;;;213.60;18.75;;;;;;;-0.96;100.00;99053.97;10319116;28;20133;-56
2021/11/11 06:59:56;;;;;;;727.58;25.05;;;;;;;-1.01;100.00;99051.56;10318037;28;20074;-53
2021/11/11 07:05:00;;;;;;;374.80;21.15;;;;;;;-1.00;100.00;99058.53;10315319;28;20100;-55
2021/11/11 07:10:04;;;;;;;196.57;20.73;;;;;;;-1.01;100.00;99062.13;10299232;28;20057;-55
2021/11/11 07:15:10;;;;;;;339.52;21.52;;;;;;;-1.00;100.00;99063.81;10317865;28;20499;-53
2021/11/11 07:20:16;;;;;;;77.13;19.55;;;;;;;-0.93;100.00;99070.56;10313016;28;20130;-53
2021/11/11 07:25:19;;;;;;;90.63;19.23;;;;;;;-0.85;100.00;99078.13;10317451;28;20130;-54
2021/11/11 07:30:24;;;;;;;281.75;17.17;;;;;;;-0.75;100.00;99078.53;10317235;28;20135;-53
2021/11/11 07:35:28;;;;;;;120.10;15.48;;;;;;;-0.71;100.00;99087.19;10316979;28;20502;-55
2021/11/11 07:40:31;;;;;;;249.90;17.23;;;;;;;-0.63;100.00;99090.31;10316114;28;20051;-54
2021/11/11 07:45:36;;;;;;;326.80;20.10;;;;;;;-0.57;100.00;99086.53;10299366;28;20502;-53
2021/11/11 07:50:43;;;;;;;57.50;17.77;;;;;;;-0.48;100.00;99084.31;10315597;28;21287;-56
2021/11/11 07:55:46;;;;;;;30.95;17.58;;;;;;;-0.35;100.00;99095.13;10315048;28;20117;-54
2021/11/11 08:00:51;;;;;;;26.15;18.02;;;;;;;-0.24;100.00;99096.38;10315290;28;22012;-55
2021/11/11 08:05:55;;;;;;;23.73;16.63;;;;;;;-0.10;100.00;99101.84;10313031;28;20056;-57
2021/11/11 08:11:00;;;;;;;32.08;16.65;;;;;;;-0.04;100.00;99100.69;10314445;28;20407;-57
2021/11/11 08:16:05;;;;;;;54.60;18.92;;;;;;;0.05;100.00;99096.72;10316659;28;20072;-53
2021/11/11 08:21:08;;;;;;;43.40;18.77;;;;;;;0.09;100.00;99090.31;10297264;28;20055;-55
2021/11/11 08:26:12;;;;;;;37.33;17.65;;;;;;;0.15;100.00;99100.63;10313710;28;20406;-56
2021/11/11 08:31:17;;;;;;;221.57;19.55;;;;;;;0.21;100.00;99097.63;10314534;28;20784;-56
2021/11/11 08:36:20;;;;;;;37.88;16.42;;;;;;;0.33;100.00;99105.88;10315986;28;20145;-58
2021/11/11 08:41:23;;;;;;;417.92;21.48;;;;;;;0.39;100.00;99100.28;10313871;28;20058;-54
2021/11/11 08:46:28;;;;;;;383.48;22.15;;;;;;;0.45;100.00;99097.31;10314959;28;20129;-56
2021/11/11 08:51:34;;;;;;;81.82;20.80;;;;;;;0.50;100.00;99089.97;10296302;28;20085;-58
2021/11/11 08:56:38;;;;;;;111.55;19.83;;;;;;;0.55;100.00;99093.22;10310376;28;20148;-54
2021/11/11 09:01:43;;;;;;;96.90;21.38;;;;;;;0.64;100.00;99101.66;10317956;28;20160;-58
2021/11/11 09:06:48;;;;;;;174.05;21.88;;;;;;;0.67;100.00;99117.38;10320883;28;20053;-55
2021/11/11 09:11:52;;;;;;;73.95;19.75;;;;;;;0.79;100.00;99114.06;10321532;28;20046;-60
2021/11/11 09:16:56;;;;;;;66.18;20.55;;;;;;;0.88;100.00;99110.91;10323710;28;20046;-54
2021/11/11 09:21:59;;;;;;;112.30;20.75;;;;;;;0.98;100.00;99110.44;10319629;28;20044;-56
2021/11/11 09:27:03;;;;;;;135.65;21.60;;;;;;;1.04;100.00;99102.13;10322936;28;20514;-59
2021/11/11 09:32:08;;;;;;;54.17;21.10;;;;;;;1.19;100.00;99103.94;10318977;28;20129;-55
2021/11/11 09:37:11;;;;;;;43.22;24.10;;;;;;;1.32;100.00;99103.28;10322015;28;20096;-59
2021/11/11 09:42:14;;;;;;;237.27;25.30;;;;;;;1.46;100.00;99121.06;10321486;28;20146;-55
2021/11/11 09:47:20;;;;;;;548.17;29.73;;;;;;;1.50;100.00;99135.91;10321440;28;20120;-57
2021/11/11 09:52:24;;;;;;;112.82;25.60;;;;;;;1.47;100.00;99128.94;10320828;28;20089;-59
2021/11/11 10:02:51;;;;;;;433.33;22.63;;;;;;;1.49;100.00;99136.84;10313534;28;20058;-56
2021/11/11 10:07:54;;;;;;;370.70;23.40;;;;;;;1.58;100.00;99138.97;10321219;28;20052;-57
2021/11/11 10:13:14;;;;;;;184.85;22.00;;;;;;;1.62;100.00;99144.97;10318843;28;20570;-57
2021/11/11 10:18:36;;;;;;;260.42;20.52;;;;;;;1.71;100.00;99136.47;10319560;28;20077;-57
2021/11/11 10:23:39;;;;;;;104.55;21.55;;;;;;;1.74;100.00;99125.66;10317364;28;20127;-54
2021/11/11 10:28:42;;;;;;;186.45;22.25;;;;;;;1.81;100.00;99116.44;10320156;28;20214;-55
2021/11/11 10:34:10;;;;;;;195.43;23.48;;;;;;;1.97;100.00;99110.19;10317394;28;20052;-57
2021/11/11 10:39:16;;;;;;;30.60;20.17;;;;;;;2.04;100.00;99103.59;10317540;28;20144;-54
2021/11/11 10:44:23;;;;;;;32.95;23.40;;;;;;;2.22;100.00;99095.47;10302499;28;20058;-55
2021/11/11 10:49:32;;;;;;;33.67;23.13;;;;;;;2.32;100.00;99099.28;10315897;28;20045;-57
2021/11/11 10:54:37;;;;;;;39.05;26.88;;;;;;;2.46;100.00;99099.31;10319068;28;20423;-58
2021/11/11 10:59:41;;;;;;;41.90;27.23;;;;;;;2.60;100.00;99103.78;10318575;28;20129;-54
2021/11/11 11:04:46;;;;;;;45.50;27.13;;;;;;;2.74;100.00;99096.75;10314259;28;20097;-59
2021/11/11 11:10:04;;;;;;;40.42;27.45;;;;;;;2.91;100.00;99106.34;10318258;28;20078;-54
2021/11/11 11:15:08;;;;;;;42.10;29.40;;;;;;;3.09;100.00;99093.69;10317150;28;20128;-54
2021/11/11 11:20:20;;;;;;;40.03;27.20;;;;;;;3.24;100.00;99081.19;10300748;28;20089;-57
2021/11/11 11:25:29;;;;;;;39.72;27.42;;;;;;;3.38;100.00;99083.00;10315662;28;20042;-57
2021/11/11 11:30:41;;;;;;;39.25;24.83;;;;;;;3.54;100.00;99089.03;10317399;28;20514;-57
2021/11/11 11:35:46;;;;;;;37.42;24.90;;;;;;;3.70;100.00;99077.38;10314685;28;20543;-58
2021/11/11 11:40:49;;;;;;;35.67;23.08;;;;;;;3.88;100.00;99077.94;10338318;23;20177;-77
2021/11/11 11:45:52;;;;;;;33.55;23.02;;;;;;;4.09;100.00;99080.13;10331622;28;20058;-78
2021/11/11 11:51:03;;;;;;;29.67;22.83;;;;;;;4.24;100.00;99076.44;10325354;28;20388;-79
2021/11/11 11:56:11;;;;;;;28.17;20.97;;;;;;;4.42;100.00;99073.44;10316827;28;20054;-78
2021/11/11 12:01:38;;;;;;;35.55;23.73;;;;;;;4.60;100.00;99065.97;10321355;28;20127;-78
2021/11/11 12:07:20;;;;;;;29.30;20.40;;;;;;;4.85;100.00;99062.44;10326370;28;20415;-76
2021/11/11 12:18:19;;;;;;;26.52;19.27;;;;;;;5.24;100.00;99041.81;10324217;28;20069;-78
2021/11/11 12:39:42;;;;;;;27.38;17.45;;;;;;;6.07;100.00;99014.38;10376506;28;20421;-57
2021/11/11 12:45:05;;;;;;;26.17;16.88;;;;;;;6.34;100.00;99015.91;10344723;28;20046;-61
2021/11/11 12:50:33;;;;;;;22.30;16.58;;;;;;;6.52;100.00;99011.78;10328177;28;20045;-58
2021/11/11 12:55:39;;;;;;;20.50;16.15;;;;;;;6.86;100.00;99010.94;10354620;28;20157;-60
2021/11/11 13:00:44;;;;;;;21.73;17.35;;;;;;;7.11;100.00;99019.66;10353819;28;20449;-58
2021/11/11 13:05:52;;;;;;;24.90;15.90;;;;;;;7.35;100.00;99020.31;10347411;28;20089;-59
2021/11/11 13:11:00;;;;;;;20.88;16.02;;;;;;;7.43;100.00;99013.50;10326401;28;20049;-57
2021/11/11 13:16:13;;;;;;;21.15;15.48;;;;;;;7.67;100.00;99000.72;10334149;28;20066;-58
2021/11/11 13:21:21;;;;;;;24.65;15.68;;;;;;;7.75;100.00;98988.50;10349739;28;20065;-60
2021/11/11 14:04:49;;;;;;;20.90;14.93;;;;;;;8.76;100.00;98991.53;10360379;28;20076;-58
2021/11/11 15:15:44;;;;;;;23.02;15.48;;;;;;;7.94;100.00;98991.31;10331672;28;20054;-60
2021/11/11 15:21:03;;;;;;;20.55;15.70;;;;;;;7.78;100.00;98990.94;10355224;28;20056;-59
2021/11/11 16:04:12;;;;;;;25.83;18.75;;;;;;;6.18;100.00;98998.34;10355187;28;20042;-60
2021/11/11 16:20:17;;;;;;;30.10;21.10;;;;;;;5.79;100.00;99011.97;10330603;28;20318;-60
2021/11/11 16:25:37;;;;;;;28.80;19.20;;;;;;;5.59;100.00;99004.56;10350509;28;20046;-61
2021/11/11 16:30:41;;;;;;;39.85;27.00;;;;;;;5.42;100.00;99013.84;10332218;28;20144;-58
2021/11/11 16:35:44;;;;;;;27.30;17.88;;;;;;;5.24;100.00;99017.78;10352324;28;20046;-56
2021/11/11 16:40:49;;;;;;;28.15;18.80;;;;;;;5.11;100.00;99022.34;10348797;28;20160;-61
2021/11/11 16:45:53;;;;;;;29.95;19.85;;;;;;;4.98;100.00;99016.16;10344657;28;20517;-69
2021/11/11 16:50:57;;;;;;;27.20;20.55;;;;;;;4.87;100.00;99024.94;10354636;28;20053;-56
2021/11/11 16:56:02;;;;;;;33.35;21.88;;;;;;;4.76;100.00;99034.56;10334277;28;20589;-58
2021/11/11 17:01:05;;;;;;;32.75;23.23;;;;;;;4.55;100.00;99026.25;10347222;28;20048;-69
2021/11/11 17:06:08;;;;;;;39.33;26.90;;;;;;;4.48;100.00;99041.84;10348014;28;20045;-61
2021/11/11 17:11:14;;;;;;;33.35;22.40;;;;;;;4.39;100.00;99050.50;10329360;28;20524;-58
2021/11/11 17:16:20;;;;;;;27.52;19.58;;;;;;;4.29;100.00;99055.59;10329805;28;20126;-58
2021/11/11 17:21:25;;;;;;;28.98;18.65;;;;;;;4.19;100.00;99070.53;10339633;28;20048;-60
2021/11/11 17:26:44;;;;;;;30.60;19.02;;;;;;;4.09;100.00;99061.47;10346378;28;20046;-61
2021/11/11 17:31:49;;;;;;;28.13;18.00;;;;;;;3.97;100.00;99069.31;10349231;28;20073;-60
2021/11/11 17:36:52;;;;;;;35.22;24.02;;;;;;;3.93;100.00;99086.50;10341182;28;20922;-60
2021/11/11 17:41:59;;;;;;;31.17;21.35;;;;;;;3.88;100.00;99090.44;10290960;23;20134;-55
2021/11/11 17:47:05;;;;;;;34.38;21.23;;;;;;;3.79;100.00;99097.22;10259107;28;20495;-51
2021/11/11 17:52:15;;;;;;;28.58;19.75;;;;;;;3.70;100.00;99088.88;10233654;28;20059;-52
2021/11/11 17:57:21;;;;;;;30.27;20.83;;;;;;;3.60;100.00;99095.75;10237697;28;20054;-57
2021/11/11 18:02:27;;;;;;;38.17;24.75;;;;;;;3.46;100.00;99098.50;10227666;28;20085;-54
2021/11/11 18:07:32;;;;;;;40.85;25.48;;;;;;;3.31;100.00;99095.84;10247782;28;20051;-56
2021/11/11 18:12:42;;;;;;;38.17;25.33;;;;;;;3.23;100.00;99106.16;10245511;28;20051;-56
2021/11/11 18:18:09;;;;;;;40.03;24.48;;;;;;;3.15;100.00;99103.09;10239488;28;20090;-58
2021/11/11 18:23:13;;;;;;;41.20;24.48;;;;;;;3.07;100.00;99107.09;10237504;28;20118;-58
2021/11/11 18:28:25;;;;;;;51.65;26.80;;;;;;;3.04;100.00;99119.75;10237938;28;20059;-53
2021/11/11 18:33:37;;;;;;;49.10;28.73;;;;;;;3.01;100.00;99115.47;10243249;28;20043;-55
2021/11/11 18:38:41;;;;;;;52.78;27.70;;;;;;;2.99;100.00;99120.06;10210948;28;1071483;-55
2021/11/11 18:43:45;;;;;;;49.67;27.83;;;;;;;2.96;100.00;99120.25;10327651;28;20056;-55
2021/11/11 18:48:50;;;;;;;54.78;31.23;;;;;;;2.96;100.00;99122.91;10318488;28;20054;-63
2021/11/11 18:53:53;;;;;;;66.00;34.65;;;;;;;2.97;100.00;99129.94;10303640;28;20130;-59
2021/11/11 18:58:58;;;;;;;48.65;27.40;;;;;;;2.95;100.00;99131.84;10473837;23;20445;-55
2021/11/11 19:04:03;;;;;;;49.60;28.30;;;;;;;2.90;100.00;99134.78;10422244;28;20052;-57
2021/11/11 19:09:14;;;;;;;50.58;28.70;;;;;;;2.83;100.00;99127.28;10423329;28;20052;-58
2021/11/11 19:14:45;;;;;;;78.22;37.40;;;;;;;2.78;100.00;99123.06;10440389;28;20045;-57
2021/11/11 19:19:51;;;;;;;67.97;35.17;;;;;;;2.76;100.00;99127.63;10424698;23;20457;-54
2021/11/11 19:24:57;;;;;;;78.93;39.65;;;;;;;2.76;100.00;99135.63;10412158;23;20140;-56
2021/11/11 19:30:04;;;;;;;79.88;37.95;;;;;;;2.75;100.00;99138.38;10443491;23;20083;-59
2021/11/11 19:35:15;;;;;;;65.00;34.35;;;;;;;2.71;100.00;99142.16;10439706;23;20113;-59
2021/11/11 19:40:29;;;;;;;72.10;37.20;;;;;;;2.69;100.00;99139.59;10419505;28;20485;-53
2021/11/11 19:51:07;;;;;;;;;;;;;;;2.66;100.00;99121.16;10436131;28;20041;-54
2021/11/11 19:56:44;;;;;;;60.63;31.83;;;;;;;2.62;100.00;99132.97;10436451;28;20380;-55
2021/11/11 20:07:27;;;;;;;55.42;30.92;;;;;;;2.44;100.00;99124.28;10417752;28;20412;-55
2021/11/11 20:12:46;;;;;;;59.63;30.88;;;;;;;2.37;100.00;99123.81;10433969;28;20048;-52
2021/11/11 20:34:22;;;;;;;50.47;28.13;;;;;;;2.14;100.00;99141.97;10392589;28;20048;-52
2021/11/11 21:01:01;;;;;;;56.45;30.70;;;;;;;1.80;100.00;99120.03;10337326;28;20080;-55
2021/11/11 21:06:12;;;;;;;45.17;28.25;;;;;;;1.75;100.00;99127.38;10395331;28;20046;-53
2021/11/11 21:11:34;;;;;;;75.20;32.90;;;;;;;1.72;100.00;99114.28;10394652;28;20512;-54
2021/11/11 21:22:17;;;;;;;135.30;35.42;;;;;;;1.66;100.00;99117.28;10388971;28;20072;-56
2021/11/11 21:33:28;;;;;;;50.33;29.35;;;;;;;1.57;100.00;99112.50;10397626;28;20182;-57
2021/11/11 21:38:36;;;;;;;67.90;30.08;;;;;;;1.56;100.00;99113.44;10419002;28;20049;-57
2021/11/11 21:43:40;;;;;;;54.67;28.58;;;;;;;1.56;100.00;99105.47;10416753;28;20539;-52
2021/11/11 21:48:44;;;;;;;53.03;29.90;;;;;;;1.54;100.00;99101.13;10433521;28;20029;-56
2021/11/11 21:53:51;;;;;;;50.55;27.67;;;;;;;1.48;100.00;99101.44;10415303;28;20049;-57
2021/11/11 21:59:02;;;;;;;165.27;24.80;;;;;;;1.42;100.00;99104.47;10433832;28;20048;-57
2021/11/11 22:04:12;;;;;;;122.47;21.98;;;;;;;1.37;100.00;99098.53;10432771;28;20037;-55
2021/11/11 22:20:15;;;;;;;261.98;24.35;;;;;;;1.19;100.00;99082.72;10438486;28;20052;-54
2021/11/11 22:25:21;;;;;;;416.23;26.77;;;;;;;1.18;100.00;99088.09;10423454;28;20132;-56
2021/11/11 22:35:45;;;;;;;566.88;28.25;;;;;;;1.10;100.00;99083.22;10441059;28;20448;-55
2021/11/11 22:40:50;;;;;;;166.13;24.88;;;;;;;1.08;100.00;99071.84;10440862;28;20492;-54
2021/11/11 22:45:53;;;;;;;620.15;29.80;;;;;;;1.06;100.00;99079.03;10442375;28;20045;-53
2021/11/11 22:51:00;;;;;;;464.50;27.02;;;;;;;0.99;100.00;99080.31;10441568;28;20047;-58
2021/11/11 22:56:08;;;;;;;413.05;22.33;;;;;;;0.98;100.00;99073.28;10439111;28;20044;-52
2021/11/11 23:12:15;;;;;;;331.40;21.33;;;;;;;0.80;100.00;99076.00;10435224;28;20148;-56
2021/11/11 23:17:36;;;;;;;381.58;22.25;;;;;;;0.75;100.00;99067.44;10418813;28;20055;-57
2021/11/11 23:22:52;;;;;;;303.67;17.90;;;;;;;0.67;100.00;99064.34;10439905;28;20567;-55
2021/11/11 23:33:18;;;;;;;426.30;18.80;;;;;;;0.54;100.00;99054.38;10436416;28;20452;-53
2021/11/11 23:38:36;;;;;;;218.05;19.38;;;;;;;0.53;100.00;99047.38;10440684;28;20469;-54
2021/11/11 23:43:40;;;;;;;147.73;17.17;;;;;;;0.48;100.00;99038.81;10358164;28;20050;-61
2021/11/11 23:48:48;;;;;;;221.52;16.35;;;;;;;0.45;100.00;99036.31;10363931;28;20524;-60
